Time;durP1;ratioP1;P1;durP2;ratioP2;P2;SDS_P1;SDS_P2;PMS_P1;PMS_P2;Temp;Humidity;BMP_temperature;BMP_pressure;BME280_temperature;BME280_humidity;BME280_pressure;Samples;Min_cycle;Max_cycle;Signal;HPM_P1;HPM_P2
2021/07/10 00:00:28;;;;;;;27.02;14.10;;;;;;;19.14;100.00;101092.44;5012318;28;20042;-78
2021/07/10 00:02:53;;;;;;;27.10;14.00;;;;;;;19.08;100.00;101096.78;5012622;28;20029;-77
2021/07/10 00:05:19;;;;;;;28.65;14.35;;;;;;;19.09;100.00;101097.53;4997353;28;20371;-77
2021/07/10 00:07:44;;;;;;;28.02;14.82;;;;;;;19.02;100.00;101095.66;5003572;28;20046;-78
2021/07/10 00:10:13;;;;;;;27.80;15.13;;;;;;;19.05;100.00;101094.09;5006208;28;20018;-77
2021/07/10 00:12:39;;;;;;;25.85;14.25;;;;;;;19.09;100.00;101095.59;5015763;28;20030;-77
2021/07/10 00:15:07;;;;;;;24.45;13.95;;;;;;;19.05;100.00;101091.34;5018879;28;20083;-78
2021/07/10 00:17:33;;;;;;;27.15;13.88;;;;;;;19.04;100.00;101081.59;5022202;28;20041;-78
2021/07/10 00:19:58;;;;;;;23.42;12.57;;;;;;;19.01;100.00;101077.69;5011628;28;20041;-77
2021/07/10 00:22:24;;;;;;;25.80;13.57;;;;;;;18.99;100.00;101095.69;5013566;28;20489;-76
2021/07/10 00:24:50;;;;;;;24.35;13.80;;;;;;;19.08;100.00;101082.34;5017261;28;20014;-77
2021/07/10 00:27:15;;;;;;;27.17;14.18;;;;;;;18.95;100.00;101084.00;5010072;28;20162;-77
2021/07/10 00:29:41;;;;;;;23.98;13.60;;;;;;;18.92;100.00;101082.84;5014150;28;20409;-77
2021/07/10 00:32:06;;;;;;;25.55;13.25;;;;;;;18.90;100.00;101082.47;5021067;28;20034;-77
2021/07/10 00:34:32;;;;;;;23.58;13.15;;;;;;;18.76;100.00;101077.88;5021199;28;20033;-77
2021/07/10 00:36:57;;;;;;;26.27;13.00;;;;;;;18.79;100.00;101077.06;5019697;28;20033;-78
2021/07/10 00:39:23;;;;;;;23.98;13.32;;;;;;;18.80;100.00;101075.13;5016952;28;20379;-78
2021/07/10 00:41:48;;;;;;;23.02;13.07;;;;;;;18.85;100.00;101058.34;5011595;28;20029;-77
2021/07/10 00:44:14;;;;;;;24.05;13.55;;;;;;;18.81;100.00;101069.25;5013170;28;20026;-77
2021/07/10 00:46:39;;;;;;;27.20;13.05;;;;;;;18.87;100.00;101064.94;5023946;28;20669;-77
2021/07/10 00:49:05;;;;;;;27.35;13.07;;;;;;;18.92;100.00;101058.28;5019211;28;20041;-78
2021/07/10 00:51:30;;;;;;;23.23;12.93;;;;;;;18.85;100.00;101052.88;5018826;28;20116;-77
2021/07/10 00:53:56;;;;;;;22.98;13.05;;;;;;;18.76;100.00;101052.53;5021338;28;20071;-77
2021/07/10 00:56:22;;;;;;;26.73;12.95;;;;;;;18.70;100.00;101044.00;5016522;28;20392;-77
2021/07/10 00:58:48;;;;;;;24.95;13.80;;;;;;;18.81;100.00;101046.66;5012020;28;20064;-77
2021/07/10 01:01:14;;;;;;;23.33;13.38;;;;;;;18.78;100.00;101036.53;5005983;28;20030;-77
2021/07/10 01:03:44;;;;;;;23.60;13.52;;;;;;;18.95;100.00;101034.88;5014966;28;20029;-77
2021/07/10 01:06:11;;;;;;;22.52;14.23;;;;;;;18.80;100.00;101040.41;5011516;28;20033;-77
2021/07/10 01:08:36;;;;;;;24.05;13.65;;;;;;;18.88;100.00;101041.16;4988112;28;20509;-77
2021/07/10 01:11:03;;;;;;;30.10;13.45;;;;;;;18.74;100.00;101036.56;5024218;28;20121;-77
2021/07/10 01:13:29;;;;;;;25.77;13.85;;;;;;;18.71;100.00;101036.59;5013321;28;20406;-77
2021/07/10 01:15:56;;;;;;;27.08;14.30;;;;;;;18.80;100.00;101031.44;5010405;28;20069;-76
2021/07/10 01:18:21;;;;;;;27.35;14.57;;;;;;;18.70;100.00;101026.84;5007543;28;20033;-77
2021/07/10 01:20:53;;;;;;;25.02;14.23;;;;;;;18.65;100.00;101016.34;5020340;28;20398;-77
2021/07/10 01:23:21;;;;;;;26.52;14.35;;;;;;;18.64;100.00;101026.50;5013460;28;20095;-77
2021/07/10 01:25:47;;;;;;;26.00;13.63;;;;;;;18.65;100.00;101019.88;5017269;28;20025;-77
2021/07/10 01:28:16;;;;;;;24.25;13.48;;;;;;;18.59;100.00;101024.19;5006705;28;20045;-77
2021/07/10 01:30:44;;;;;;;25.27;14.02;;;;;;;18.56;100.00;101021.50;5009711;28;20034;-76
2021/07/10 01:33:10;;;;;;;25.95;13.25;;;;;;;18.69;100.00;101019.84;5016808;28;20068;-77
2021/07/10 01:35:37;;;;;;;24.92;13.30;;;;;;;18.61;100.00;101024.56;5013687;28;20030;-77
2021/07/10 01:38:08;;;;;;;24.67;13.68;;;;;;;18.65;100.00;101024.53;5006258;28;20126;-76
2021/07/10 01:40:35;;;;;;;20.63;12.68;;;;;;;18.71;100.00;101012.03;5009901;28;20034;-77
2021/07/10 01:43:05;;;;;;;23.35;12.95;;;;;;;18.56;100.00;101010.59;5019634;28;20058;-77
2021/07/10 01:45:40;;;;;;;24.60;12.60;;;;;;;18.63;100.00;101008.56;5020417;28;20057;-77
2021/07/10 01:48:07;;;;;;;24.02;12.93;;;;;;;18.58;100.00;101011.72;5017337;28;20041;-77
2021/07/10 01:50:33;;;;;;;24.88;13.45;;;;;;;18.55;100.00;101015.25;5019893;28;20513;-77
2021/07/10 01:52:58;;;;;;;26.15;13.70;;;;;;;18.50;100.00;101014.91;5005952;28;20038;-76
2021/07/10 01:55:25;;;;;;;23.80;13.05;;;;;;;18.43;100.00;101007.53;5018241;28;20014;-77
2021/07/10 01:57:53;;;;;;;30.27;13.02;;;;;;;18.39;100.00;101005.97;5014681;28;20068;-77
2021/07/10 02:00:28;;;;;;;25.92;13.90;;;;;;;18.52;100.00;101009.81;5012028;28;20033;-77
2021/07/10 02:02:57;;;;;;;22.55;13.23;;;;;;;18.53;100.00;100997.72;5012353;28;20034;-76
2021/07/10 02:05:24;;;;;;;24.80;13.90;;;;;;;18.46;100.00;100993.09;5015531;28;20402;-76
2021/07/10 02:07:51;;;;;;;27.83;15.27;;;;;;;18.46;100.00;100987.66;5009298;23;20042;-74
2021/07/10 02:10:20;;;;;;;26.63;14.45;;;;;;;18.45;100.00;100990.75;4989351;28;20106;-75
2021/07/10 02:12:56;;;;;;;28.77;14.88;;;;;;;18.40;100.00;100993.88;4991715;28;20042;-75
2021/07/10 02:15:22;;;;;;;25.20;14.15;;;;;;;18.37;100.00;100990.00;4991672;28;20037;-75
2021/07/10 02:17:48;;;;;;;27.55;14.60;;;;;;;18.41;100.00;100995.44;4994860;28;20495;-75
2021/07/10 02:20:26;;;;;;;25.05;15.05;;;;;;;18.36;100.00;100993.91;5000575;28;20038;-75
2021/07/10 02:22:52;;;;;;;26.70;13.68;;;;;;;18.30;100.00;100992.00;4993147;28;20041;-73
2021/07/10 02:25:20;;;;;;;28.45;14.45;;;;;;;18.31;100.00;100990.84;4995729;28;20711;-73
2021/07/10 02:27:45;;;;;;;29.85;15.30;;;;;;;18.24;100.00;100983.47;4999626;28;20045;-73
2021/07/10 02:30:20;;;;;;;25.88;14.57;;;;;;;18.13;100.00;100984.69;5024403;28;20034;-73
2021/07/10 02:32:46;;;;;;;27.00;15.30;;;;;;;18.09;100.00;100981.19;4991105;28;20034;-73
2021/07/10 02:35:14;;;;;;;28.05;14.88;;;;;;;18.09;100.00;100989.38;4985010;28;20038;-73
2021/07/10 02:37:40;;;;;;;28.70;15.63;;;;;;;18.10;100.00;100988.22;4989165;28;20036;-73
2021/07/10 02:40:09;;;;;;;28.23;15.98;;;;;;;18.16;100.00;100992.06;4991235;28;20490;-73
2021/07/10 02:42:35;;;;;;;27.38;15.45;;;;;;;18.08;100.00;100985.88;4990142;28;20129;-73
2021/07/10 02:45:02;;;;;;;26.10;15.48;;;;;;;18.08;100.00;100987.84;5006173;28;20037;-73
2021/07/10 02:47:28;;;;;;;28.05;15.18;;;;;;;18.19;100.00;100985.84;4996620;28;20092;-72
2021/07/10 02:49:53;;;;;;;28.30;15.35;;;;;;;18.06;100.00;100990.94;4995786;28;20042;-73
2021/07/10 02:52:19;;;;;;;30.25;16.08;;;;;;;18.04;100.00;100982.38;4989727;28;20022;-73
2021/07/10 02:54:44;;;;;;;24.50;14.75;;;;;;;18.02;100.00;100982.78;4995174;28;20057;-73
2021/07/10 02:57:09;;;;;;;28.05;15.50;;;;;;;18.02;100.00;100984.75;5000467;28;20045;-73
2021/07/10 02:59:35;;;;;;;25.95;14.18;;;;;;;18.03;100.00;100978.13;4992605;28;20039;-73
2021/07/10 03:02:00;;;;;;;27.20;14.38;;;;;;;18.14;100.00;100978.06;4993242;28;20057;-73
2021/07/10 03:04:27;;;;;;;27.48;15.35;;;;;;;17.99;100.00;100980.09;5004360;28;20060;-73
2021/07/10 03:06:52;;;;;;;23.02;14.75;;;;;;;17.92;100.00;100988.31;4987937;28;20031;-73
2021/07/10 03:09:17;;;;;;;26.60;13.52;;;;;;;17.96;100.00;100983.63;4986462;28;20640;-73
2021/07/10 03:11:43;;;;;;;26.10;13.82;;;;;;;17.96;100.00;100983.63;4992752;28;20548;-73
2021/07/10 03:14:09;;;;;;;24.45;14.85;;;;;;;18.00;100.00;100987.84;4991497;28;20034;-74
2021/07/10 03:16:35;;;;;;;28.60;14.55;;;;;;;17.90;100.00;100993.38;5000047;28;20116;-74
2021/07/10 03:19:00;;;;;;;25.30;14.38;;;;;;;17.94;100.00;100988.69;5003202;28;20045;-74
2021/07/10 03:21:25;;;;;;;24.30;13.60;;;;;;;18.00;100.00;100987.09;4991569;28;20053;-74
2021/07/10 03:23:53;;;;;;;29.77;14.23;;;;;;;18.03;100.00;100986.31;4986070;28;20093;-74
2021/07/10 03:26:19;;;;;;;23.35;13.30;;;;;;;17.95;100.00;100988.28;4979486;28;20083;-74
2021/07/10 03:28:45;;;;;;;25.67;13.40;;;;;;;17.94;100.00;100983.22;4990596;28;20536;-74
2021/07/10 03:31:10;;;;;;;23.02;13.07;;;;;;;17.87;100.00;100988.69;4981625;28;20035;-74
2021/07/10 03:33:38;;;;;;;18.52;12.43;;;;;;;17.84;100.00;100984.84;4991017;28;20049;-74
2021/07/10 03:36:05;;;;;;;22.52;13.25;;;;;;;17.88;100.00;100982.09;4989081;28;20564;-74
2021/07/10 03:38:32;;;;;;;25.02;12.95;;;;;;;17.91;100.00;100984.78;4991902;28;20030;-74
2021/07/10 03:40:58;;;;;;;20.80;12.82;;;;;;;17.87;100.00;100984.03;4979133;28;20034;-74
2021/07/10 03:43:23;;;;;;;23.00;12.20;;;;;;;17.83;100.00;100985.22;4994143;28;20407;-74
2021/07/10 03:45:52;;;;;;;23.73;12.93;;;;;;;17.83;100.00;100979.75;4991853;28;20042;-75
2021/07/10 03:48:21;;;;;;;22.80;12.77;;;;;;;17.88;100.00;100982.09;4998192;28;20032;-73
2021/07/10 03:50:46;;;;;;;25.70;12.63;;;;;;;17.85;100.00;100991.81;4989050;28;20125;-73
2021/07/10 03:53:12;;;;;;;25.88;12.77;;;;;;;17.87;100.00;100992.22;4992021;28;20122;-73
2021/07/10 03:55:41;;;;;;;21.42;12.38;;;;;;;17.90;100.00;100996.09;4995459;28;20030;-73
2021/07/10 03:58:06;;;;;;;21.75;12.10;;;;;;;17.91;100.00;101003.88;4995775;28;20104;-73
2021/07/10 04:00:32;;;;;;;19.25;12.20;;;;;;;17.88;100.00;101001.94;4996907;28;20041;-73
2021/07/10 04:02:57;;;;;;;24.75;13.07;;;;;;;17.82;100.00;100995.34;4999193;28;20040;-72
2021/07/10 04:05:23;;;;;;;23.15;12.20;;;;;;;17.77;100.00;101003.91;4992335;28;20086;-73
2021/07/10 04:07:49;;;;;;;24.40;12.65;;;;;;;17.74;100.00;100999.28;4992044;28;20060;-73
2021/07/10 04:10:15;;;;;;;24.25;13.23;;;;;;;17.80;100.00;100997.69;4984272;28;20054;-73
2021/07/10 04:12:43;;;;;;;22.73;12.20;;;;;;;17.72;100.00;101004.34;5005937;28;20034;-72
2021/07/10 04:15:11;;;;;;;26.45;13.00;;;;;;;17.70;100.00;100990.31;4983784;28;20038;-73
2021/07/10 04:17:36;;;;;;;25.80;11.85;;;;;;;17.76;100.00;100987.97;4990273;28;20038;-73
2021/07/10 04:20:10;;;;;;;26.35;12.35;;;;;;;17.80;100.00;100989.53;4997290;28;20093;-73
2021/07/10 04:22:39;;;;;;;22.38;12.45;;;;;;;17.78;100.00;100997.31;5007670;28;20082;-73
2021/07/10 04:25:08;;;;;;;23.13;11.35;;;;;;;17.83;100.00;100999.63;4989351;28;20050;-72
2021/07/10 04:27:34;;;;;;;26.25;13.43;;;;;;;17.80;100.00;100994.19;4992697;28;20034;-72
2021/07/10 04:30:01;;;;;;;27.35;12.43;;;;;;;17.91;100.00;100998.41;4985071;28;20038;-73
2021/07/10 04:32:27;;;;;;;22.02;12.45;;;;;;;17.82;100.00;100997.28;5003392;28;20026;-72
2021/07/10 04:34:53;;;;;;;21.95;12.75;;;;;;;17.81;100.00;100985.59;4985485;28;20090;-72
2021/07/10 04:37:19;;;;;;;22.85;12.00;;;;;;;17.69;100.00;100996.19;4988732;28;20042;-73
2021/07/10 04:39:45;;;;;;;23.60;11.88;;;;;;;17.79;100.00;100998.84;4959813;28;20070;-72
2021/07/10 04:42:11;;;;;;;20.75;12.15;;;;;;;17.79;100.00;101001.56;4988698;28;20038;-72
2021/07/10 04:44:36;;;;;;;21.92;12.55;;;;;;;17.91;100.00;100994.91;4990392;28;20096;-72
2021/07/10 04:47:02;;;;;;;19.88;11.90;;;;;;;17.89;100.00;100999.97;4998062;28;20046;-72
2021/07/10 04:49:28;;;;;;;18.23;12.20;;;;;;;17.87;100.00;101002.31;4990577;28;20045;-72
2021/07/10 04:51:54;;;;;;;19.25;12.27;;;;;;;17.86;100.00;101001.56;4988561;28;20161;-72
2021/07/10 04:54:23;;;;;;;22.27;11.93;;;;;;;17.88;100.00;101007.41;4984198;28;20038;-72
2021/07/10 04:56:49;;;;;;;30.92;12.50;;;;;;;17.91;100.00;101001.16;4989591;28;20033;-72
2021/07/10 04:59:14;;;;;;;18.95;11.75;;;;;;;17.81;100.00;101006.63;4990975;28;20498;-73
2021/07/10 05:01:40;;;;;;;19.55;12.35;;;;;;;17.82;100.00;101000.81;4984261;28;20038;-72
2021/07/10 05:04:05;;;;;;;22.98;12.13;;;;;;;17.80;100.00;101005.09;4997234;28;20034;-72
2021/07/10 05:06:31;;;;;;;20.02;11.63;;;;;;;17.81;100.00;101001.97;4995560;28;20101;-72
2021/07/10 05:08:56;;;;;;;20.63;10.93;;;;;;;17.83;100.00;101001.56;4996778;28;20073;-72
2021/07/10 05:11:22;;;;;;;24.48;11.77;;;;;;;17.87;100.00;100997.66;4984097;28;20026;-72
2021/07/10 05:13:47;;;;;;;20.40;11.63;;;;;;;17.92;100.00;100997.22;4989890;28;20077;-72
2021/07/10 05:16:13;;;;;;;19.60;11.52;;;;;;;17.94;100.00;100994.88;4989760;28;20395;-72
2021/07/10 05:18:38;;;;;;;22.77;11.43;;;;;;;17.99;100.00;100988.25;4994107;28;20026;-72
2021/07/10 05:21:04;;;;;;;22.20;11.90;;;;;;;18.06;100.00;100990.19;4993188;28;20034;-72
2021/07/10 05:23:30;;;;;;;17.95;10.75;;;;;;;18.04;100.00;100988.63;4988194;28;20038;-72
2021/07/10 05:25:56;;;;;;;17.35;10.90;;;;;;;18.07;100.00;100991.72;4987047;28;20034;-72
2021/07/10 05:28:21;;;;;;;22.10;11.35;;;;;;;18.03;100.00;100997.19;4989328;28;20471;-73
2021/07/10 05:30:47;;;;;;;18.73;10.50;;;;;;;18.06;100.00;100992.91;4998697;28;20040;-72
2021/07/10 05:33:14;;;;;;;20.88;10.80;;;;;;;18.14;100.00;100986.25;4996772;28;20034;-72
2021/07/10 05:35:40;;;;;;;20.83;11.05;;;;;;;18.20;100.00;100990.09;4991297;28;20106;-72
2021/07/10 05:38:05;;;;;;;21.90;11.27;;;;;;;18.17;100.00;100985.44;4993825;28;20121;-72
2021/07/10 05:40:31;;;;;;;20.75;10.57;;;;;;;18.23;100.00;100989.31;4994633;28;20033;-73
2021/07/10 05:42:56;;;;;;;17.42;10.57;;;;;;;18.12;100.00;100980.44;5003079;28;20427;-72
2021/07/10 05:45:22;;;;;;;21.27;10.65;;;;;;;18.16;100.00;100989.34;4992975;28;20060;-72
2021/07/10 05:47:48;;;;;;;17.92;10.05;;;;;;;18.35;100.00;100986.88;4993626;28;20629;-72
2021/07/10 05:50:14;;;;;;;21.23;10.52;;;;;;;18.47;100.00;100993.88;4992171;28;20035;-74
2021/07/10 05:52:40;;;;;;;18.52;10.65;;;;;;;18.29;100.00;100995.91;4992327;28;20117;-72
2021/07/10 05:55:07;;;;;;;16.73;10.15;;;;;;;18.30;100.00;100989.25;4991118;28;20030;-72
2021/07/10 05:57:33;;;;;;;20.25;10.15;;;;;;;18.30;100.00;100992.00;5003720;28;20513;-73
2021/07/10 05:59:58;;;;;;;18.77;10.77;;;;;;;18.45;100.00;101004.41;4980652;28;20030;-73
2021/07/10 06:02:24;;;;;;;21.67;10.45;;;;;;;18.40;100.00;101007.53;4987545;28;20038;-73
2021/07/10 06:04:49;;;;;;;14.88;10.27;;;;;;;18.40;100.00;101002.84;4977690;28;20522;-73
2021/07/10 06:07:15;;;;;;;15.85;9.35;;;;;;;18.40;100.00;101005.59;5000167;28;20045;-73
2021/07/10 06:09:41;;;;;;;16.92;9.82;;;;;;;18.55;100.00;101003.56;4998186;28;20080;-73
2021/07/10 06:12:07;;;;;;;15.02;9.45;;;;;;;18.60;100.00;101003.91;4992613;28;20049;-73
2021/07/10 06:14:33;;;;;;;17.58;9.70;;;;;;;18.60;100.00;101006.63;4990560;28;20033;-72
2021/07/10 06:16:59;;;;;;;18.55;9.95;;;;;;;18.59;100.00;100994.19;4991293;28;20034;-72
2021/07/10 06:19:24;;;;;;;17.05;10.52;;;;;;;18.63;100.00;100999.59;4995201;28;20038;-73
2021/07/10 06:21:50;;;;;;;20.73;10.15;;;;;;;18.63;100.00;101005.06;4994838;28;20144;-73
2021/07/10 06:24:15;;;;;;;17.38;10.20;;;;;;;18.78;100.00;101007.28;4993249;28;20038;-73
2021/07/10 06:26:41;;;;;;;19.02;10.38;;;;;;;18.75;100.00;101002.66;4980187;28;20069;-73
2021/07/10 06:29:07;;;;;;;13.30;9.23;;;;;;;18.78;100.00;101004.56;4992552;28;20045;-73
2021/07/10 06:31:33;;;;;;;13.40;8.95;;;;;;;18.82;100.00;101010.00;4993715;28;21615;-73
2021/07/10 06:34:03;;;;;;;14.20;8.88;;;;;;;18.94;100.00;101004.06;4989316;28;20070;-73
2021/07/10 06:36:28;;;;;;;17.52;9.35;;;;;;;18.88;100.00;101011.13;5002470;28;20549;-73
2021/07/10 06:38:54;;;;;;;13.77;9.02;;;;;;;18.98;100.00;101012.22;4992491;28;20042;-73
2021/07/10 06:41:19;;;;;;;16.95;9.05;;;;;;;19.03;100.00;101015.28;4991337;28;20046;-73
2021/07/10 06:43:45;;;;;;;15.70;8.90;;;;;;;19.18;100.00;101021.41;4987824;28;20405;-73
2021/07/10 06:46:12;;;;;;;14.40;8.18;;;;;;;19.23;100.00;101027.22;4996091;28;20035;-73
2021/07/10 06:48:37;;;;;;;13.70;8.35;;;;;;;19.29;100.00;101022.88;4992049;28;20092;-73
2021/07/10 06:51:04;;;;;;;12.02;7.50;;;;;;;19.42;100.00;101017.69;5000420;28;20038;-73
2021/07/10 06:53:30;;;;;;;13.48;7.90;;;;;;;19.44;100.00;101027.03;4998232;28;20173;-73
2021/07/10 06:55:56;;;;;;;16.45;7.75;;;;;;;19.51;100.00;101028.94;4988496;28;20423;-73
2021/07/10 06:58:22;;;;;;;12.75;8.57;;;;;;;19.44;100.00;101024.31;4986396;28;20026;-73
2021/07/10 07:00:47;;;;;;;11.85;7.95;;;;;;;19.52;100.00;101027.72;4992034;28;20045;-73
2021/07/10 07:03:13;;;;;;;12.45;7.65;;;;;;;19.47;100.00;101028.94;4988198;28;20030;-73
2021/07/10 07:05:39;;;;;;;10.88;7.70;;;;;;;19.49;100.00;101032.03;4999796;28;20709;-73
2021/07/10 07:08:05;;;;;;;9.43;6.72;;;;;;;19.55;100.00;101041.34;4987820;28;20065;-73
2021/07/10 07:10:31;;;;;;;10.93;7.22;;;;;;;19.41;100.00;101032.53;4994243;28;20125;-73
2021/07/10 07:12:56;;;;;;;15.48;7.38;;;;;;;19.57;100.00;101036.25;4996716;28;20027;-73
2021/07/10 07:15:22;;;;;;;11.88;7.97;;;;;;;19.56;100.00;101037.47;4984230;28;20057;-73
2021/07/10 07:17:47;;;;;;;14.95;7.10;;;;;;;19.58;100.00;101037.03;4991662;28;20061;-73
2021/07/10 07:20:15;;;;;;;17.80;8.15;;;;;;;19.46;100.00;101038.34;4997783;28;20064;-73
2021/07/10 07:22:47;;;;;;;11.88;7.40;;;;;;;19.51;100.00;101037.88;4990383;28;20515;-73
2021/07/10 07:25:20;;;;;;;13.18;7.63;;;;;;;19.42;100.00;101048.53;4996472;28;20045;-73
2021/07/10 07:27:48;;;;;;;11.50;7.20;;;;;;;19.39;100.00;101043.88;4998477;28;20191;-73
2021/07/10 07:30:34;;;;;;;11.38;7.50;;;;;;;19.64;100.00;101052.59;4982857;28;20041;-73
2021/07/10 07:33:00;;;;;;;13.60;7.30;;;;;;;19.60;100.00;101049.13;4979265;28;20466;-73
2021/07/10 07:35:25;;;;;;;10.65;7.18;;;;;;;19.63;100.00;101053.78;4972977;28;20034;-73
2021/07/10 07:37:50;;;;;;;11.98;6.80;;;;;;;19.64;100.00;101047.13;4967810;28;20408;-73
2021/07/10 07:40:17;;;;;;;16.27;7.40;;;;;;;19.53;100.00;101043.72;4964762;28;20030;-73
2021/07/10 07:42:45;;;;;;;13.00;7.22;;;;;;;19.64;100.00;101057.28;4967175;28;20058;-73
2021/07/10 07:45:12;;;;;;;11.65;6.70;;;;;;;19.64;100.00;101052.59;4970520;28;20124;-73
2021/07/10 07:47:39;;;;;;;12.45;7.13;;;;;;;19.73;100.00;101057.56;4968694;28;20133;-73
2021/07/10 07:50:10;;;;;;;12.50;6.85;;;;;;;19.75;100.00;101056.00;4971537;28;20038;-75
2021/07/10 07:52:36;;;;;;;11.95;6.95;;;;;;;19.84;100.00;101057.47;4971228;28;20030;-73
2021/07/10 07:55:04;;;;;;;12.13;7.47;;;;;;;19.72;100.00;101059.53;4968150;28;20378;-73
2021/07/10 07:57:29;;;;;;;10.98;7.35;;;;;;;19.65;100.00;101056.88;4979925;28;20137;-73
2021/07/10 07:59:55;;;;;;;15.60;7.25;;;;;;;19.77;100.00;101056.38;4988022;28;20089;-73
2021/07/10 08:02:22;;;;;;;15.13;7.43;;;;;;;19.78;100.00;101062.63;4975223;28;20042;-73
2021/07/10 08:04:49;;;;;;;11.15;6.93;;;;;;;19.84;100.00;101062.94;4964758;28;20140;-73
2021/07/10 08:07:14;;;;;;;11.05;6.93;;;;;;;20.07;98.53;101065.81;4991141;23;20049;-77
2021/07/10 08:09:40;;;;;;;10.98;7.05;;;;;;;20.07;98.88;101063.84;5016024;28;20386;-77
2021/07/10 08:12:06;;;;;;;12.75;7.07;;;;;;;20.06;98.73;101064.22;5008343;28;20509;-77
2021/07/10 08:14:31;;;;;;;12.90;6.55;;;;;;;20.08;99.11;101061.88;4994896;28;20044;-77
2021/07/10 08:16:57;;;;;;;8.85;6.63;;;;;;;20.10;98.28;101073.97;5011630;28;20048;-77
2021/07/10 08:19:22;;;;;;;13.48;6.82;;;;;;;20.07;98.69;101069.31;5017078;28;20037;-77
2021/07/10 08:21:48;;;;;;;10.50;7.30;;;;;;;20.16;97.94;101058.66;5025709;28;20398;-76
2021/07/10 08:24:13;;;;;;;8.23;6.30;;;;;;;20.13;98.68;101064.91;5023918;28;20066;-76
2021/07/10 08:26:39;;;;;;;10.50;6.55;;;;;;;20.26;96.68;101059.72;5021028;28;20036;-76
2021/07/10 08:29:05;;;;;;;9.68;6.55;;;;;;;20.16;95.01;101068.81;5023908;28;20088;-76
2021/07/10 08:31:33;;;;;;;9.52;5.82;;;;;;;20.24;94.50;101064.84;5009053;28;20045;-77
2021/07/10 08:33:58;;;;;;;10.23;5.85;;;;;;;20.12;96.31;101068.84;5014962;28;20505;-76
2021/07/10 08:36:24;;;;;;;10.68;5.75;;;;;;;20.17;96.13;101062.91;5019022;28;20053;-77
2021/07/10 08:38:49;;;;;;;11.05;6.32;;;;;;;20.23;95.65;101068.75;5024090;28;20038;-76
2021/07/10 08:41:16;;;;;;;8.50;6.05;;;;;;;20.19;96.05;101068.03;5031807;28;20531;-77
2021/07/10 08:43:43;;;;;;;7.72;5.80;;;;;;;20.14;95.14;101077.44;5029150;28;20029;-77
2021/07/10 08:46:11;;;;;;;10.93;6.10;;;;;;;20.27;93.68;101073.00;5018185;28;20030;-77
2021/07/10 08:48:37;;;;;;;13.18;6.53;;;;;;;20.23;94.80;101066.00;5015303;28;20056;-77
2021/07/10 08:51:05;;;;;;;9.35;6.35;;;;;;;20.23;94.51;101066.00;5028420;28;20057;-76
2021/07/10 08:53:31;;;;;;;8.15;5.97;;;;;;;20.28;95.32;101065.56;5012685;28;20083;-77
2021/07/10 08:55:56;;;;;;;9.23;5.75;;;;;;;20.48;95.10;101063.72;5021873;28;20029;-76
2021/07/10 08:58:22;;;;;;;7.95;5.63;;;;;;;20.49;94.94;101065.28;5028482;28;20565;-77
2021/07/10 09:00:48;;;;;;;10.73;5.80;;;;;;;20.61;94.21;101072.94;5028847;28;20500;-77
2021/07/10 09:03:15;;;;;;;11.07;6.00;;;;;;;20.59;94.35;101067.88;5036794;28;20069;-77
2021/07/10 09:05:41;;;;;;;8.85;6.10;;;;;;;20.59;93.42;101064.38;5035705;28;20033;-77
2021/07/10 09:08:12;;;;;;;11.05;6.35;;;;;;;20.66;92.09;101064.25;5022481;28;20041;-76
2021/07/10 09:10:44;;;;;;;12.30;7.28;;;;;;;20.71;92.10;101061.06;5037394;28;20124;-76
2021/07/10 09:13:11;;;;;;;11.68;6.72;;;;;;;20.66;92.59;101064.25;5034187;28;20500;-76
2021/07/10 09:15:37;;;;;;;12.95;7.55;;;;;;;20.78;92.64;101065.66;5021100;28;20026;-77
2021/07/10 09:18:08;;;;;;;10.82;6.63;;;;;;;21.09;91.62;101058.94;5029924;28;20048;-77
2021/07/10 09:20:35;;;;;;;10.80;7.05;;;;;;;21.35;91.15;101066.34;5025754;28;20033;-77
2021/07/10 09:23:01;;;;;;;11.07;7.10;;;;;;;21.41;90.01;101059.16;5026797;28;20037;-76
2021/07/10 09:25:32;;;;;;;11.00;6.70;;;;;;;21.50;89.15;101056.66;5006119;28;20030;-77
2021/07/10 09:28:02;;;;;;;12.18;7.00;;;;;;;21.47;89.18;101063.75;5024426;28;20896;-76
2021/07/10 09:30:37;;;;;;;9.13;6.90;;;;;;;21.52;88.25;101055.03;5029934;28;20056;-76
2021/07/10 09:33:18;;;;;;;11.40;6.85;;;;;;;21.53;87.84;101053.09;5013377;28;20167;-75
2021/07/10 09:35:54;;;;;;;10.70;6.32;;;;;;;21.73;87.73;101044.88;5022800;28;20123;-77
2021/07/10 09:38:27;;;;;;;7.72;6.47;;;;;;;22.07;87.50;101039.91;5048522;28;20041;-77
2021/07/10 09:41:06;;;;;;;9.73;6.30;;;;;;;22.32;87.12;101042.91;5029877;28;20128;-77
2021/07/10 09:43:35;;;;;;;9.82;6.03;;;;;;;22.58;84.73;101041.97;5033853;28;20053;-77
2021/07/10 09:46:03;;;;;;;10.07;6.85;;;;;;;22.48;84.26;101053.94;5031094;28;20045;-76
2021/07/10 09:48:30;;;;;;;10.70;6.88;;;;;;;22.57;84.81;101050.66;5007994;28;20041;-77
2021/07/10 09:51:15;;;;;;;8.35;6.00;;;;;;;22.80;82.62;101043.00;5026904;28;20041;-77
2021/07/10 09:53:40;;;;;;;7.93;5.53;;;;;;;22.99;82.44;101049.66;5017360;28;20025;-77
2021/07/10 09:56:14;;;;;;;6.85;5.70;;;;;;;22.99;82.15;101039.44;5021698;28;20013;-77
2021/07/10 09:58:40;;;;;;;8.88;5.68;;;;;;;23.11;82.99;101055.22;5021162;28;20032;-75
2021/07/10 10:01:28;;;;;;;8.32;5.50;;;;;;;23.04;78.78;101054.63;5025817;28;20505;-76
2021/07/10 10:03:54;;;;;;;7.00;5.05;;;;;;;23.05;80.78;101051.44;5012741;28;20400;-77
2021/07/10 10:06:33;;;;;;;10.85;5.82;;;;;;;23.04;81.36;101049.91;5010618;28;20029;-76
2021/07/10 10:09:00;;;;;;;7.20;5.97;;;;;;;23.04;80.22;101051.88;5009646;28;20072;-76
2021/07/10 10:11:55;;;;;;;9.52;5.78;;;;;;;23.12;80.77;101048.53;5029076;28;20040;-77
2021/07/10 10:14:21;;;;;;;7.78;4.97;;;;;;;23.59;79.97;101050.88;5013738;28;20100;-76
2021/07/10 10:16:48;;;;;;;9.43;4.97;;;;;;;23.58;76.83;101055.59;5006741;28;20088;-77
2021/07/10 10:19:22;;;;;;;9.23;5.55;;;;;;;23.40;77.29;101055.31;4996741;28;20026;-76
2021/07/10 10:21:50;;;;;;;7.30;5.05;;;;;;;23.30;78.52;101061.84;5014300;28;20124;-76
2021/07/10 10:24:17;;;;;;;8.07;5.60;;;;;;;23.35;79.17;101057.78;5042526;28;20036;-76
2021/07/10 10:26:44;;;;;;;7.30;5.72;;;;;;;23.54;78.61;101062.44;5023231;28;20057;-76
2021/07/10 10:29:11;;;;;;;5.93;5.30;;;;;;;23.75;78.02;101059.09;5016123;28;20033;-75
2021/07/10 10:31:39;;;;;;;7.30;5.13;;;;;;;23.73;77.85;101058.78;5028971;28;20033;-76
2021/07/10 10:34:06;;;;;;;9.32;5.60;;;;;;;23.55;75.59;101061.22;5029687;28;20044;-76
2021/07/10 10:36:34;;;;;;;5.65;4.80;;;;;;;23.67;77.53;101060.50;5024733;28;20034;-76
2021/07/10 10:39:00;;;;;;;8.65;5.15;;;;;;;23.59;76.51;101068.19;5030260;28;20037;-76
2021/07/10 10:41:27;;;;;;;6.47;5.18;;;;;;;23.42;75.99;101060.38;5040311;28;20064;-76
2021/07/10 10:43:55;;;;;;;9.80;5.30;;;;;;;23.42;78.00;101063.91;5020820;28;20414;-76
2021/07/10 10:46:23;;;;;;;7.03;4.18;;;;;;;23.71;74.62;101067.44;5024177;28;20037;-76
2021/07/10 10:48:50;;;;;;;6.07;3.30;;;;;;;24.00;74.40;101057.19;5026239;28;20092;-76
2021/07/10 10:51:22;;;;;;;4.15;3.28;;;;;;;24.40;70.09;101057.63;5027346;28;20033;-76
2021/07/10 10:53:47;;;;;;;3.97;3.38;;;;;;;24.62;68.60;101058.50;5020625;28;20120;-75
2021/07/10 10:56:36;;;;;;;6.15;3.70;;;;;;;24.78;68.28;101063.19;5030271;28;20026;-76
2021/07/10 10:59:42;;;;;;;3.78;3.10;;;;;;;25.05;66.55;101069.78;5024726;28;20343;-76
2021/07/10 11:02:32;;;;;;;3.75;3.00;;;;;;;25.24;63.46;101075.47;5036679;28;20042;-76
2021/07/10 11:04:58;;;;;;;5.38;3.42;;;;;;;25.47;64.71;101070.38;5017775;28;20413;-76
2021/07/10 11:07:28;;;;;;;4.28;3.15;;;;;;;25.63;64.15;101064.69;5031718;28;20120;-76
2021/07/10 11:10:03;;;;;;;3.80;3.50;;;;;;;25.57;64.75;101068.47;5028819;28;20037;-76